Flight Track Log - Related Links

Times and Time Zones

All times are in EDT time to prevent confusion due to time zone crossing. See the AWE1693 flight status page for this flight to view local times or setup timezone preferences in your user account.

Time Position Orientation Groundspeed Altitude Reporting Facility
EDT Latitude Longitude Course Direction KTS MPH feet Rate Location/Type
Sat 09:37:33 AM 38.8333 -77.0333 201° Southwest 138 159 1,200  Level Potomac TRACON
Sat 09:38:33 AM 38.7833 -77.0333 180° South 190 219 3,100 1,878 Climbing Potomac TRACON
Sat 09:39:00 AM 38.6303 -77.2702 222° Southwest  Level FlightAware Approximate
Sat 09:39:28 AM 38.7167 -77.0333 180° South 241 277 4,800  Level Potomac TRACON
Sat 09:40:00 AM 38.5521 -77.3615 222° Southwest  Level FlightAware Approximate
Sat 09:40:28 AM 38.7000 -77.1000 252° West 275 316 5,000  Level Potomac TRACON
Sat 09:41:00 AM 38.4766 -77.4563 225° Southwest  Level FlightAware Approximate
Sat 09:41:28 AM 38.7000 -77.2000 270° West 275 316 5,900  Level Potomac TRACON
Sat 09:42:00 AM 38.3973 -77.5430 201° Southwest  Level FlightAware Approximate
Sat 09:42:28 AM 38.6667 -77.2833 243° Southwest 289 333 9,200  Level Potomac TRACON
Sat 09:43:28 AM 38.6167 -77.3500 226° Southwest 313 360 11,000 1,732 Climbing Potomac TRACON
Sat 09:44:05 AM 38.5578 -77.4078 218° Southwest 374 430 12,000 2,633 Climbing Washington Center
Sat 09:45:06 AM 38.4772 -77.4878 218° Southwest 374 430 15,300 2,459 Climbing Washington Center
Sat 09:46:07 AM 38.4117 -77.5525 218° Southwest 374 430 17,000 2,050 Climbing Washington Center
Sat 09:47:06 AM 38.3261 -77.6772 229° Southwest 379 436 19,400 2,118 Climbing Washington Center
Sat 09:48:06 AM 38.2553 -77.7864 230° Southwest 395 455 21,200 1,835 Climbing Washington Center
Sat 09:49:07 AM 38.1803 -77.8978 229° Southwest 408 470 23,100 1,770 Climbing Washington Center
Sat 09:50:08 AM 38.1031 -78.0114 229° Southwest 420 483 24,800 1,388 Climbing Washington Center
Sat 09:51:08 AM 38.0383 -78.1069 229° Southwest 433 498 25,900 1,525 Climbing Washington Center
Sat 09:52:06 AM 37.9544 -78.2333 230° Southwest 433 498 27,800 1,831 Climbing Washington Center
Sat 09:53:06 AM 37.8639 -78.3642 229° Southwest 445 512 29,500 1,600 Climbing Washington Center
Sat 09:54:06 AM 37.7819 -78.4819 229° Southwest 445 512 31,000 1,240 Climbing Washington Center
Sat 09:55:07 AM 37.7017 -78.5997 229° Southwest 445 512 32,000 492 Climbing Washington Center
Sat 09:56:08 AM 37.6172 -78.7197 228° Southwest 445 512 32,000  Level Washington Center
Sat 09:57:08 AM 37.5436 -78.8267 229° Southwest 451 519 32,000  Level Washington Center
Sat 09:58:06 AM 37.4589 -78.9433 228° Southwest 451 519 32,000  Level Washington Center
Sat 09:59:07 AM 37.3742 -79.0650 229° Southwest 457 526 32,000  Level Washington Center
Sat 10:00:08 AM 37.2894 -79.1839 228° Southwest 457 526 32,000  Level Washington Center
Sat 10:01:08 AM 37.1964 -79.2864 221° Southwest 457 526 32,000  Level Washington Center
Sat 10:02:06 AM 37.0789 -79.3797 212° Southwest 452 520 32,000  Level Washington Center
Sat 10:03:06 AM 36.9758 -79.4658 214° Southwest 457 526 32,000  Level Washington Center
Sat 10:04:07 AM 36.8708 -79.5514 213° Southwest 457 526 32,000 -396 Level Washington Center
Sat 10:06:08 AM 36.6725 -79.7139 213° Southwest 450 518 30,800 -1,127 Descending Atlanta Center
Sat 10:07:08 AM 36.5811 -79.7861 212° Southwest 421 484 28,600 -2,300 Descending Atlanta Center
Sat 10:08:08 AM 36.4981 -79.8550 214° Southwest 391 450 26,200 -2,800 Descending Atlanta Center
Sat 10:09:08 AM 36.4006 -79.9322 213° Southwest 373 429 23,000 -2,100 Descending Atlanta Center
Sat 10:10:08 AM 36.3192 -80.0008 214° Southwest 368 423 22,000 -500 Descending Atlanta Center
Sat 10:11:08 AM 36.2403 -80.0692 215° Southwest 363 418 22,000 -750 Level Atlanta Center
Sat 10:12:08 AM 36.1631 -80.1347 214° Southwest 357 411 20,500 -1,600 Descending Atlanta Center
Sat 10:13:08 AM 36.0939 -80.1919 214° Southwest 349 402 18,800 -1,500 Descending Atlanta Center
Sat 10:14:08 AM 36.0186 -80.2547 214° Southwest 344 396 17,500 -1,600 Descending Atlanta Center
Sat 10:15:08 AM 35.9417 -80.3250 216° Southwest 329 379 15,600 -1,678 Descending Atlanta Center
Sat 10:16:06 AM 35.8664 -80.3897 215° Southwest 315 362 14,200 -1,326 Descending Atlanta Center
Sat 10:16:43 AM 35.8297 -80.4222 216° Southwest 310 357 13,500 -1,395 Descending Atlanta Center
Sat 10:17:32 AM 35.7686 -80.4736 214° Southwest 303 349 12,200 -1,553 Descending Atlanta Center
Sat 10:18:08 AM 35.7300 -80.5058 214° Southwest 319 367 11,300 -1,612 Descending Atlanta Center
Sat 10:18:39 AM 35.6914 -80.5408 216° Southwest 295 339 10,400 -848 Descending Atlanta Center
Sat 10:19:40 AM 35.6242 -80.5975 214° Southwest 299 344 10,000 -195 Descending Atlanta Center
Sat 10:20:42 AM 35.5547 -80.6514 212° Southwest 299 344 10,000  Level Atlanta Center
Sat 10:21:43 AM 35.4853 -80.7078 213° Southwest 296 341 10,000  Level Atlanta Center
Sat 10:22:44 AM 35.4139 -80.7667 214° Southwest 293 337 10,000  Level Atlanta Center
Sat 10:23:39 AM 35.3608 -80.8147 216° Southwest 247 284 10,000  Level Atlanta Center
Sat 10:24:40 AM 35.2969 -80.8400 198° South 242 278 10,000 -295 Level Atlanta Center
Sat 10:25:41 AM 35.2281 -80.8378 178° South 244 281 9,400 -927 Descending Atlanta Center
Sat 10:26:43 AM 35.1589 -80.8328 177° South 247 284 8,100 -1,171 Descending Atlanta Center
Sat 10:27:44 AM 35.0919 -80.8250 175° South 245 282 7,000 -1,082 Descending Atlanta Center
Sat 10:28:45 AM 35.0250 -80.8203 177° South 235 270 5,900 -1,219 Descending Atlanta Center
Sat 10:29:52 AM 34.9539 -80.8128 175° South 230 265 4,400 -934 Descending Atlanta Center
Sat 10:30:47 AM 34.8953 -80.8075 176° South 228 262 4,000 -197 Descending Atlanta Center
Sat 10:31:54 AM 34.8347 -80.8022 176° South 201 231 4,000  Level Atlanta Center
Sat 10:32:55 AM 34.7831 -80.8194 195° South 191 220 4,000  Level Atlanta Center
Sat 10:33:55 AM 34.7722 -80.8831 258° West 193 222 4,000  Level Atlanta Center
Sat 10:34:57 AM 34.8103 -80.9042 336° Northwest 182 209 4,000  Level Atlanta Center
Sat 10:35:57 AM 34.8583 -80.9075 357° North 176 203 4,000  Level Atlanta Center
Sat 10:36:52 AM 34.9044 -80.9108 357° North 177 204 4,000  Level Atlanta Center
Sat 10:37:53 AM 34.9544 -80.9167 355° North 180 207 4,000  Level Atlanta Center
Sat 10:38:54 AM 35.0047 -80.9197 357° North 179 206 4,000 -344 Level Atlanta Center
Sat 10:39:55 AM 35.0569 -80.9256 355° North 174 200 3,300 -689 Descending Atlanta Center

Login

Don't have an account? Register now (free) for customized features, flight alerts, and more!